Time;durP1;ratioP1;P1;durP2;ratioP2;P2;SDS_P1;SDS_P2;PMS_P1;PMS_P2;Temp;Humidity;BMP_temperature;BMP_pressure;BME280_temperature;BME280_humidity;BME280_pressure;Samples;Min_cycle;Max_cycle;Signal;HPM_P1;HPM_P2
2023/01/11 00:01:18;;;;;;;2.20;1.23;;;11.30;32.40;;;;;;5002993;28;20216;-72
2023/01/11 00:03:44;;;;;;;2.20;1.13;;;11.60;31.70;;;;;;4990573;28;20265;-72
2023/01/11 00:06:10;;;;;;;2.20;1.20;;;11.60;31.70;;;;;;4999957;28;20256;-72
2023/01/11 00:08:37;;;;;;;2.30;1.30;;;11.60;32.20;;;;;;4991924;28;20264;-72
2023/01/11 00:11:03;;;;;;;2.15;1.20;;;11.50;33.20;;;;;;4991607;28;20190;-71
2023/01/11 00:13:30;;;;;;;2.20;1.10;;;11.30;33.50;;;;;;4982602;28;20179;-72
2023/01/11 00:15:55;;;;;;;2.53;1.38;;;11.40;33.60;;;;;;4996698;28;20185;-72
2023/01/11 00:18:21;;;;;;;2.20;1.10;;;11.10;33.90;;;;;;5011294;28;20177;-72
2023/01/11 00:20:47;;;;;;;2.17;1.20;;;11.10;33.90;;;;;;4983248;28;20198;-73
2023/01/11 00:23:12;;;;;;;2.20;1.20;;;11.10;33.40;;;;;;4988806;28;20946;-73
2023/01/11 00:25:38;;;;;;;2.20;1.20;;;11.20;33.70;;;;;;5003882;28;20174;-74
2023/01/11 00:28:05;;;;;;;2.20;1.20;;;11.20;33.40;;;;;;5006922;28;20177;-73
2023/01/11 00:30:31;;;;;;;2.40;1.38;;;11.30;33.60;;;;;;4995759;28;20186;-74
2023/01/11 00:32:58;;;;;;;2.10;1.10;;;11.30;34.50;;;;;;4975329;28;20229;-73
2023/01/11 00:35:25;;;;;;;2.20;1.20;;;11.60;33.80;;;;;;4974759;28;20264;-73
2023/01/11 00:37:52;;;;;;;2.20;1.20;;;11.50;33.70;;;;;;4990029;28;20276;-74
2023/01/11 00:40:18;;;;;;;2.20;1.20;;;11.40;33.70;;;;;;4989906;28;20194;-73
2023/01/11 00:48:12;;;;;;;2.10;1.10;;;11.40;34.00;;;;;;4999375;28;20188;-73
2023/01/11 00:50:39;;;;;;;2.20;1.20;;;11.10;35.00;;;;;;4998834;28;20178;-73
2023/01/11 00:53:06;;;;;;;2.22;1.20;;;11.20;35.60;;;;;;4986317;28;20193;-73
2023/01/11 00:55:32;;;;;;;2.30;1.30;;;11.20;35.10;;;;;;4999702;28;20217;-71
2023/01/11 00:57:59;;;;;;;2.88;1.45;;;11.30;35.10;;;;;;4990301;28;20785;-71
2023/01/11 01:00:25;;;;;;;2.17;1.10;;;11.30;35.60;;;;;;4998262;28;20577;-70
2023/01/11 01:02:51;;;;;;;2.10;1.10;;;11.40;35.00;;;;;;5018827;28;20204;-71
2023/01/11 01:05:17;;;;;;;2.10;1.10;;;11.90;34.80;;;;;;5009671;28;20181;-71
2023/01/11 01:07:43;;;;;;;2.10;1.10;;;11.50;35.00;;;;;;4993638;28;20178;-71
2023/01/11 01:10:11;;;;;;;2.20;1.20;;;11.30;35.40;;;;;;5006115;28;20235;-71
2023/01/11 01:15:21;;;;;;;2.10;1.10;;;11.10;36.10;;;;;;4997341;28;20312;-71
2023/01/11 01:17:47;;;;;;;2.10;1.10;;;10.90;36.90;;;;;;4998685;28;20610;-71
2023/01/11 01:20:14;;;;;;;2.00;1.00;;;10.70;37.60;;;;;;5005676;28;20416;-73
2023/01/11 01:22:40;;;;;;;2.20;1.20;;;10.70;37.90;;;;;;5005649;28;20459;-69
2023/01/11 01:25:06;;;;;;;2.47;1.35;;;10.90;37.10;;;;;;5003239;28;20713;-72
2023/01/11 01:27:33;;;;;;;2.10;1.10;;;10.80;37.40;;;;;;5002879;28;20547;-72
2023/01/11 01:29:58;;;;;;;2.10;1.10;;;10.80;37.70;;;;;;4985674;28;20372;-72
2023/01/11 01:32:24;;;;;;;2.20;1.30;;;10.60;38.00;;;;;;4982582;28;20309;-71
2023/01/11 01:34:49;;;;;;;2.20;1.20;;;10.50;38.20;;;;;;4991751;28;20189;-70
2023/01/11 01:37:15;;;;;;;2.10;1.10;;;10.70;38.20;;;;;;4990677;28;20243;-71
2023/01/11 01:39:41;;;;;;;2.13;1.20;;;10.70;37.80;;;;;;4994422;28;20186;-71
2023/01/11 01:42:15;;;;;;;2.30;1.33;;;11.20;36.50;;;;;;4989797;28;20212;-72
2023/01/11 01:44:57;;;;;;;2.22;1.25;;;11.40;36.10;;;;;;4998679;28;20404;-72
2023/01/11 01:47:30;;;;;;;2.10;1.20;;;11.00;36.90;;;;;;4988472;28;20216;-71
2023/01/11 01:49:59;;;;;;;2.10;1.10;;;11.00;37.60;;;;;;4992356;28;20189;-71
2023/01/11 01:52:28;;;;;;;2.08;1.10;;;10.80;37.60;;;;;;4990195;28;20228;-71
2023/01/11 01:54:57;;;;;;;2.20;1.20;;;11.20;37.00;;;;;;4998278;28;20703;-71
2023/01/11 01:57:27;;;;;;;2.08;1.10;;;11.10;36.70;;;;;;4989455;28;20742;-70
2023/01/11 01:59:56;;;;;;;2.20;1.20;;;11.20;36.60;;;;;;5005599;28;20172;-73
2023/01/11 02:02:24;;;;;;;2.10;1.10;;;10.70;37.90;;;;;;4996521;28;20612;-71
2023/01/11 02:04:51;;;;;;;2.10;1.10;;;10.70;38.50;;;;;;5007367;28;20272;-72
2023/01/11 02:07:21;;;;;;;2.03;1.10;;;10.50;38.70;;;;;;5002295;28;20216;-73
2023/01/11 02:10:07;;;;;;;2.15;1.20;;;10.50;39.30;;;;;;4994631;28;20268;-74
2023/01/11 02:13:00;;;;;;;2.10;1.20;;;10.20;40.00;;;;;;4994747;28;20208;-70
2023/01/11 02:15:26;;;;;;;2.10;1.20;;;9.90;42.30;;;;;;5014167;28;20264;-72
2023/01/11 02:17:51;;;;;;;2.10;1.10;;;9.90;42.10;;;;;;5014526;28;20657;-73
2023/01/11 02:20:48;;;;;;;2.10;1.30;;;9.90;41.90;;;;;;5012803;28;20427;-70
2023/01/11 02:23:28;;;;;;;2.10;1.20;;;10.00;40.00;;;;;;4987542;28;20188;-74
2023/01/11 02:26:00;;;;;;;2.08;1.10;;;10.10;39.90;;;;;;5001247;28;20180;-72
2023/01/11 02:28:29;;;;;;;2.03;1.10;;;10.10;40.10;;;;;;5004219;28;20227;-71
2023/01/11 02:31:29;;;;;;;2.00;1.10;;;10.00;39.90;;;;;;5007216;28;20649;-70
2023/01/11 02:34:22;;;;;;;2.10;1.20;;;9.80;41.30;;;;;;4998437;28;20706;-71
2023/01/11 02:37:08;;;;;;;2.00;1.10;;;9.70;42.10;;;;;;4989289;28;20182;-71
2023/01/11 02:39:40;;;;;;;2.00;1.10;;;9.80;41.80;;;;;;4992984;28;20546;-70
2023/01/11 02:45:46;;;;;;;2.00;1.17;;;10.50;39.50;;;;;;4994882;28;20209;-71
2023/01/11 02:48:45;;;;;;;2.03;1.20;;;10.60;39.10;;;;;;4994000;28;20188;-71
2023/01/11 02:51:17;;;;;;;2.03;1.17;;;10.60;39.00;;;;;;4993233;28;20288;-71
2023/01/11 02:54:04;;;;;;;2.00;1.10;;;10.60;39.10;;;;;;5002792;28;20182;-70
2023/01/11 02:56:35;;;;;;;2.00;1.20;;;10.60;39.20;;;;;;5003042;28;20208;-70
2023/01/11 02:59:03;;;;;;;2.03;1.10;;;10.50;39.20;;;;;;4996691;28;20199;-71
2023/01/11 03:01:29;;;;;;;2.00;1.10;;;10.70;39.10;;;;;;5006704;28;20221;-71
2023/01/11 03:03:55;;;;;;;2.03;1.10;;;10.80;39.00;;;;;;5008203;28;20177;-70
2023/01/11 03:06:27;;;;;;;2.00;1.10;;;10.60;39.40;;;;;;5004438;28;20216;-70
2023/01/11 03:09:19;;;;;;;2.00;1.10;;;10.80;39.50;;;;;;5005397;28;20173;-70
2023/01/11 03:13:07;;;;;;;2.10;1.17;;;10.90;39.20;;;;;;5013090;28;20286;-71
2023/01/11 03:15:18;;;;;;;1.98;1.10;;;10.80;39.90;;;;;;4990075;28;20187;-71
2023/01/11 03:17:49;;;;;;;2.00;1.10;;;10.60;40.70;;;;;;4992446;28;20189;-74
2023/01/11 03:20:29;;;;;;;1.90;1.10;;;10.80;39.50;;;;;;4996931;28;20275;-70
2023/01/11 03:23:14;;;;;;;2.03;1.10;;;10.70;39.90;;;;;;4994706;28;20971;-70
2023/01/11 03:25:59;;;;;;;2.00;1.10;;;10.60;39.10;;;;;;5000441;28;20187;-71
2023/01/11 03:28:38;;;;;;;2.92;1.40;;;11.30;39.00;;;;;;4998849;28;20647;-71
2023/01/11 03:31:07;;;;;;;2.00;1.15;;;11.30;39.20;;;;;;5004549;28;20577;-71
2023/01/11 03:33:54;;;;;;;2.00;1.15;;;11.40;39.50;;;;;;5007460;28;20216;-71
2023/01/11 03:36:33;;;;;;;1.90;1.10;;;11.20;39.90;;;;;;4992937;28;20235;-72
2023/01/11 03:39:08;;;;;;;2.00;1.10;;;11.00;40.30;;;;;;4998063;28;20280;-73
2023/01/11 03:41:38;;;;;;;2.00;1.10;;;11.10;40.60;;;;;;5004369;28;20200;-73
2023/01/11 03:44:06;;;;;;;2.00;1.10;;;11.40;39.90;;;;;;5004609;28;20189;-71
2023/01/11 03:46:49;;;;;;;2.00;1.10;;;11.30;39.90;;;;;;4994563;28;20186;-73
2023/01/11 03:50:01;;;;;;;2.00;1.10;;;11.10;40.20;;;;;;4992225;28;20551;-73
2023/01/11 03:52:32;;;;;;;2.20;1.30;;;11.10;40.20;;;;;;4941444;29;20243;-71
2023/01/11 03:55:00;;;;;;;2.00;1.10;;;10.90;41.10;;;;;;4943100;29;20183;-73
2023/01/11 03:57:32;;;;;;;2.08;1.10;;;10.60;41.50;;;;;;4936561;29;20304;-70
2023/01/11 03:59:58;;;;;;;2.15;1.15;;;10.60;42.30;;;;;;4926403;29;20263;-70
2023/01/11 04:02:32;;;;;;;2.13;1.10;;;10.50;42.80;;;;;;4939770;29;20226;-71
2023/01/11 04:04:58;;;;;;;2.20;1.23;;;10.60;42.60;;;;;;4940484;29;20790;-73
2023/01/11 04:07:23;;;;;;;2.13;1.10;;;10.80;41.90;;;;;;4923075;29;20448;-71
2023/01/11 04:09:49;;;;;;;2.30;1.40;;;11.10;41.00;;;;;;4906514;29;20682;-71
2023/01/11 04:12:14;;;;;;;2.10;1.20;;;11.20;40.80;;;;;;4938299;29;20218;-71
2023/01/11 04:14:40;;;;;;;2.10;1.10;;;11.60;40.00;;;;;;4942968;29;20232;-70
2023/01/11 04:17:06;;;;;;;2.10;1.10;;;11.80;39.60;;;;;;4945795;29;20220;-71
2023/01/11 04:19:31;;;;;;;2.10;1.10;;;11.70;38.80;;;;;;4919179;29;20192;-71
2023/01/11 04:21:57;;;;;;;2.10;1.10;;;11.80;39.00;;;;;;4927618;29;20748;-74
2023/01/11 04:24:22;;;;;;;2.10;1.10;;;11.70;39.10;;;;;;4949561;29;20204;-70
2023/01/11 04:26:48;;;;;;;2.10;1.10;;;11.40;40.20;;;;;;4931113;29;20255;-71
2023/01/11 04:29:13;;;;;;;2.10;1.10;;;11.70;40.20;;;;;;4984738;28;20251;-75
2023/01/11 04:31:39;;;;;;;2.10;1.10;;;11.70;40.30;;;;;;4999718;28;20205;-73
2023/01/11 04:34:05;;;;;;;2.17;1.10;;;11.20;41.70;;;;;;5002934;28;20714;-71
2023/01/11 04:36:31;;;;;;;2.17;1.10;;;11.20;41.70;;;;;;4993635;28;20178;-71
2023/01/11 04:38:57;;;;;;;2.10;1.10;;;11.60;41.40;;;;;;4992281;28;20202;-71
2023/01/11 04:44:07;;;;;;;2.27;1.20;;;11.90;39.50;;;;;;5000637;28;20809;-71
2023/01/11 04:46:32;;;;;;;2.20;1.20;;;12.00;39.30;;;;;;5010269;28;20420;-73
2023/01/11 04:48:58;;;;;;;2.10;1.10;;;11.90;39.60;;;;;;5011890;28;20522;-72
2023/01/11 04:51:23;;;;;;;2.17;1.20;;;11.90;39.60;;;;;;5000494;28;20210;-71
2023/01/11 04:53:49;;;;;;;2.10;1.07;;;11.40;40.80;;;;;;5011642;28;20173;-72
2023/01/11 04:56:15;;;;;;;2.13;1.10;;;11.20;41.40;;;;;;5011392;28;20188;-72
2023/01/11 04:58:41;;;;;;;2.20;1.10;;;11.60;41.00;;;;;;5011706;28;20177;-72
2023/01/11 05:01:12;;;;;;;2.20;1.10;;;11.50;39.80;;;;;;5006847;28;20217;-72
2023/01/11 05:03:38;;;;;;;2.22;1.08;;;11.40;40.10;;;;;;4996433;28;20264;-71
2023/01/11 05:06:04;;;;;;;2.20;1.10;;;11.20;40.70;;;;;;5003631;28;20269;-71
2023/01/11 05:08:31;;;;;;;2.17;1.10;;;11.10;41.10;;;;;;4992010;28;20552;-72
2023/01/11 05:10:59;;;;;;;2.17;1.10;;;11.40;40.40;;;;;;4991461;28;20193;-72
2023/01/11 05:13:40;;;;;;;2.15;1.10;;;11.20;41.30;;;;;;4991816;28;20238;-72
2023/01/11 05:16:16;;;;;;;2.22;1.13;;;10.90;42.30;;;;;;4994974;28;20655;-72
2023/01/11 05:19:03;;;;;;;2.17;1.13;;;10.50;44.50;;;;;;5011447;28;20223;-72
2023/01/11 05:21:34;;;;;;;2.10;1.10;;;10.60;44.50;;;;;;5007680;28;20867;-72
2023/01/11 05:24:02;;;;;;;2.17;1.10;;;10.60;44.40;;;;;;4998493;28;20709;-72
2023/01/11 05:26:34;;;;;;;2.20;1.20;;;10.70;44.50;;;;;;5001511;28;20427;-72
2023/01/11 05:29:01;;;;;;;2.10;1.10;;;10.30;45.30;;;;;;4991570;28;20174;-72
2023/01/11 05:31:27;;;;;;;2.17;1.10;;;10.20;47.10;;;;;;4998230;28;20216;-73
2023/01/11 05:33:55;;;;;;;2.10;1.10;;;10.10;46.00;;;;;;4986609;28;20181;-72
2023/01/11 05:36:23;;;;;;;2.13;1.10;;;10.10;47.30;;;;;;4987526;28;20418;-71
2023/01/11 05:38:50;;;;;;;2.30;1.27;;;10.70;47.60;;;;;;4986567;28;20331;-73
2023/01/11 05:41:17;;;;;;;2.60;1.67;;;10.20;46.70;;;;;;4983530;28;20217;-73
2023/01/11 05:46:28;;;;;;;2.20;1.20;;;10.40;45.60;;;;;;4994084;28;20563;-73
2023/01/11 05:48:54;;;;;;;2.10;1.20;;;10.40;45.20;;;;;;5000061;28;20187;-72
2023/01/11 05:51:20;;;;;;;2.10;1.20;;;10.10;46.10;;;;;;5006775;28;20218;-73
2023/01/11 05:53:46;;;;;;;2.10;1.10;;;10.10;46.60;;;;;;5010312;28;20197;-73
2023/01/11 05:56:12;;;;;;;2.00;1.10;;;10.20;47.30;;;;;;4995921;28;20607;-73
2023/01/11 05:58:38;;;;;;;2.30;1.40;;;10.30;46.00;;;;;;5013031;28;20181;-73
2023/01/11 06:01:04;;;;;;;2.10;1.30;;;10.50;44.80;;;;;;5001549;28;20229;-70
2023/01/11 06:03:30;;;;;;;2.20;1.20;;;10.70;44.30;;;;;;5011046;28;20280;-72
2023/01/11 06:05:58;;;;;;;2.20;1.27;;;10.60;45.50;;;;;;5002795;28;20272;-73
2023/01/11 06:08:23;;;;;;;2.00;1.20;;;10.40;45.50;;;;;;5012501;28;20201;-74
2023/01/11 06:10:51;;;;;;;2.10;1.20;;;10.50;45.60;;;;;;5014649;28;20219;-74
2023/01/11 06:13:26;;;;;;;5.13;2.10;;;10.60;46.30;;;;;;4994919;28;20436;-73
2023/01/11 06:15:53;;;;;;;2.20;1.30;;;10.70;44.80;;;;;;4994053;28;20766;-73
2023/01/11 06:18:19;;;;;;;2.13;1.10;;;10.60;44.90;;;;;;4998154;28;20184;-73
2023/01/11 06:20:51;;;;;;;2.20;1.20;;;10.70;45.70;;;;;;4996764;28;20220;-73
2023/01/11 06:23:17;;;;;;;2.13;1.10;;;10.50;46.00;;;;;;5005369;28;20428;-74
2023/01/11 06:25:43;;;;;;;2.20;1.20;;;11.00;45.40;;;;;;4997393;28;20223;-73
2023/01/11 06:28:09;;;;;;;2.10;1.10;;;11.00;43.80;;;;;;5004473;28;20674;-73
2023/01/11 06:30:35;;;;;;;4.73;2.13;;;11.30;43.80;;;;;;4991021;28;20194;-74
2023/01/11 06:33:04;;;;;;;2.20;1.10;;;10.90;43.50;;;;;;4991250;28;20448;-72
2023/01/11 06:35:37;;;;;;;3.27;1.50;;;10.80;43.30;;;;;;5012573;28;20180;-74
2023/01/11 06:38:03;;;;;;;2.17;1.17;;;10.70;43.90;;;;;;4997511;28;20413;-73
2023/01/11 06:40:28;;;;;;;2.20;1.10;;;10.50;43.90;;;;;;5012021;28;20420;-74
2023/01/11 06:42:54;;;;;;;2.30;1.30;;;10.50;44.30;;;;;;5009294;28;20319;-73
2023/01/11 06:45:20;;;;;;;2.10;1.20;;;10.40;43.70;;;;;;5008681;28;20197;-74
2023/01/11 06:47:45;;;;;;;3.53;1.57;;;10.00;45.20;;;;;;5014273;28;20169;-73
2023/01/11 06:50:11;;;;;;;2.17;1.10;;;10.10;45.20;;;;;;5013869;28;20645;-74
2023/01/11 06:52:37;;;;;;;2.20;1.20;;;10.20;45.20;;;;;;5012848;28;20205;-74
2023/01/11 06:55:02;;;;;;;2.10;1.10;;;10.10;45.30;;;;;;5001918;28;20245;-74
2023/01/11 06:57:28;;;;;;;2.10;1.20;;;10.20;45.10;;;;;;5005135;28;20211;-74
2023/01/11 06:59:54;;;;;;;2.20;1.20;;;10.30;44.30;;;;;;5022223;28;20243;-73
2023/01/11 07:02:19;;;;;;;2.00;1.10;;;10.30;44.70;;;;;;5014221;28;20216;-74
2023/01/11 07:04:45;;;;;;;2.60;1.40;;;10.10;45.60;;;;;;5006234;28;20192;-75
2023/01/11 07:07:10;;;;;;;2.20;1.20;;;10.10;45.70;;;;;;5005577;28;20208;-74
2023/01/11 07:09:36;;;;;;;2.10;1.20;;;10.00;46.80;;;;;;5011897;28;20239;-74
2023/01/11 07:12:02;;;;;;;2.17;1.27;;;10.20;46.20;;;;;;5001442;28;20205;-74
2023/01/11 07:14:28;;;;;;;2.17;1.20;;;10.20;46.20;;;;;;5002563;28;20181;-72
2023/01/11 07:16:53;;;;;;;2.00;1.10;;;10.50;45.70;;;;;;5006481;28;20189;-74
2023/01/11 07:19:19;;;;;;;2.03;1.10;;;10.80;44.30;;;;;;4996769;28;20177;-74
2023/01/11 07:21:44;;;;;;;2.00;1.10;;;11.10;43.20;;;;;;4993318;28;20210;-74
2023/01/11 07:24:10;;;;;;;2.00;1.10;;;10.90;45.10;;;;;;4993964;28;20180;-74
2023/01/11 07:26:40;;;;;;;2.07;1.10;;;10.80;45.60;;;;;;4996016;28;20174;-74
2023/01/11 07:29:09;;;;;;;2.00;1.10;;;10.70;46.40;;;;;;5006562;28;20180;-74
2023/01/11 07:31:35;;;;;;;2.05;1.10;;;11.40;43.80;;;;;;5001552;28;20212;-74
2023/01/11 07:34:01;;;;;;;2.03;1.10;;;11.70;42.70;;;;;;5007548;28;20200;-75
2023/01/11 07:36:28;;;;;;;2.10;1.10;;;11.90;43.10;;;;;;5004966;28;20182;-74
2023/01/11 07:38:54;;;;;;;2.17;1.10;;;12.00;41.70;;;;;;5004480;28;20197;-74
2023/01/11 07:44:04;;;;;;;2.20;1.20;;;11.80;42.50;;;;;;4985889;28;20816;-73
2023/01/11 07:46:30;;;;;;;2.10;1.10;;;11.70;42.90;;;;;;4991002;28;20421;-74
2023/01/11 07:48:55;;;;;;;2.13;1.10;;;11.80;43.20;;;;;;4998817;28;20178;-74
2023/01/11 07:51:23;;;;;;;2.20;1.20;;;11.70;42.70;;;;;;4999619;28;20270;-74
2023/01/11 07:53:49;;;;;;;2.20;1.10;;;11.40;43.70;;;;;;4999369;28;20283;-74
2023/01/11 07:56:15;;;;;;;2.30;1.20;;;11.50;44.00;;;;;;4984872;28;20445;-73
2023/01/11 07:58:40;;;;;;;2.50;1.40;;;11.80;43.10;;;;;;4995470;28;20456;-74
2023/01/11 08:01:06;;;;;;;2.30;1.10;;;11.60;43.30;;;;;;5006109;28;20277;-74
2023/01/11 08:03:32;;;;;;;2.40;1.20;;;11.50;43.50;;;;;;5004464;28;20252;-74
2023/01/11 08:05:57;;;;;;;2.30;1.10;;;11.70;43.30;;;;;;4993752;28;20178;-74
2023/01/11 08:08:23;;;;;;;2.40;1.10;;;11.90;42.30;;;;;;4992970;28;20178;-74
2023/01/11 08:14:37;;;;;;;2.43;1.20;;;11.80;42.30;;;;;;4996340;28;20189;-75
2023/01/11 08:16:18;;;;;;;2.40;1.10;;;11.70;42.40;;;;;;4988018;28;20447;-74
2023/01/11 08:18:44;;;;;;;4.30;1.97;;;11.80;41.70;;;;;;4990910;28;20444;-74
2023/01/11 08:21:09;;;;;;;2.40;1.10;;;12.10;40.80;;;;;;5002101;28;20220;-73
2023/01/11 08:23:35;;;;;;;2.43;1.20;;;12.00;41.10;;;;;;5012253;28;20176;-74
2023/01/11 08:26:01;;;;;;;2.60;1.37;;;12.20;41.00;;;;;;5011023;28;20204;-74
2023/01/11 08:28:26;;;;;;;2.43;1.10;;;12.20;40.40;;;;;;5012357;28;20177;-74
2023/01/11 08:30:52;;;;;;;2.50;1.20;;;12.10;40.80;;;;;;4998476;28;20190;-74
2023/01/11 08:33:18;;;;;;;3.93;1.67;;;12.20;41.00;;;;;;5008388;28;20252;-73
2023/01/11 08:35:43;;;;;;;2.60;1.20;;;12.30;40.60;;;;;;4992348;28;20413;-74
2023/01/11 08:38:09;;;;;;;5.80;2.00;;;12.20;40.40;;;;;;4992551;28;20174;-74
2023/01/11 08:40:35;;;;;;;2.60;1.20;;;11.30;40.80;;;;;;5014049;28;20562;-74
2023/01/11 08:43:01;;;;;;;2.60;1.20;;;11.70;41.60;;;;;;4991102;28;20485;-75
2023/01/11 08:45:27;;;;;;;2.53;1.10;;;11.50;42.20;;;;;;5000924;28;20416;-77
2023/01/11 08:47:53;;;;;;;2.60;1.20;;;11.20;43.00;;;;;;4996216;28;20586;-76
2023/01/11 08:50:20;;;;;;;2.50;1.10;;;11.80;41.80;;;;;;4995220;28;20491;-79
2023/01/11 08:52:46;;;;;;;2.60;1.10;;;11.70;42.30;;;;;;5002713;28;20463;-79
2023/01/11 08:55:11;;;;;;;2.70;1.30;;;12.00;42.00;;;;;;5010766;28;20416;-76
2023/01/11 08:57:37;;;;;;;2.57;1.10;;;12.30;40.30;;;;;;4984152;28;20433;-75
2023/01/11 09:00:07;;;;;;;2.50;1.10;;;12.20;41.10;;;;;;4991846;28;20178;-75
2023/01/11 09:02:32;;;;;;;2.60;1.10;;;12.00;40.70;;;;;;4988319;28;20237;-75
2023/01/11 09:04:58;;;;;;;2.70;1.20;;;12.20;40.90;;;;;;4994565;28;20529;-75
2023/01/11 09:07:24;;;;;;;2.90;1.30;;;12.50;40.90;;;;;;4990804;28;20189;-75
2023/01/11 09:09:50;;;;;;;2.70;1.20;;;12.80;40.70;;;;;;4985855;28;20188;-75
2023/01/11 09:12:16;;;;;;;3.63;1.47;;;13.00;41.00;;;;;;4990608;28;20460;-76
2023/01/11 09:14:42;;;;;;;2.60;1.10;;;13.10;40.80;;;;;;4988574;28;20938;-76
2023/01/11 09:17:07;;;;;;;2.70;1.20;;;13.40;40.00;;;;;;4998383;28;20434;-75
2023/01/11 09:19:33;;;;;;;2.70;1.20;;;13.90;40.30;;;;;;4984953;28;20194;-75
2023/01/11 09:22:01;;;;;;;2.67;1.10;;;14.10;38.70;;;;;;4988119;28;20684;-75
2023/01/11 09:24:28;;;;;;;2.70;1.10;;;14.10;38.70;;;;;;4997865;28;20280;-74
2023/01/11 09:26:56;;;;;;;2.73;1.20;;;13.70;37.90;;;;;;5015008;28;20466;-74
2023/01/11 09:29:22;;;;;;;2.80;1.20;;;13.30;39.20;;;;;;4999662;28;20938;-74
2023/01/11 09:31:47;;;;;;;2.83;1.30;;;13.70;37.70;;;;;;4991302;28;20438;-74
2023/01/11 09:34:13;;;;;;;3.10;1.43;;;13.60;38.40;;;;;;4991518;28;20184;-75
2023/01/11 09:36:39;;;;;;;2.73;1.20;;;13.40;40.00;;;;;;4992834;28;20182;-75
2023/01/11 09:39:13;;;;;;;2.80;1.20;;;13.70;40.90;;;;;;5011457;28;20175;-75
2023/01/11 09:42:16;;;;;;;2.70;1.10;;;13.70;40.20;;;;;;5004810;28;20478;-75
2023/01/11 09:44:55;;;;;;;2.80;1.20;;;13.80;39.50;;;;;;5002314;28;20456;-75
2023/01/11 09:47:39;;;;;;;2.70;1.10;;;13.60;39.70;;;;;;4992396;28;20500;-75
2023/01/11 09:50:13;;;;;;;2.90;1.20;;;13.50;39.40;;;;;;5001405;28;20520;-75
2023/01/11 09:52:42;;;;;;;3.47;1.73;;;13.30;39.10;;;;;;5002334;28;20466;-75
2023/01/11 09:55:15;;;;;;;2.80;1.20;;;13.10;40.10;;;;;;5006275;28;20426;-75
2023/01/11 09:57:59;;;;;;;3.00;1.30;;;14.00;39.00;;;;;;5013118;28;20486;-77
2023/01/11 10:00:34;;;;;;;2.80;1.20;;;13.60;38.90;;;;;;5001786;28;20438;-77
2023/01/11 10:03:09;;;;;;;2.83;1.20;;;13.60;38.70;;;;;;5013013;28;20467;-76
2023/01/11 10:05:55;;;;;;;2.90;1.30;;;13.40;38.70;;;;;;4984264;28;20438;-76
2023/01/11 10:08:41;;;;;;;2.90;1.20;;;13.20;39.60;;;;;;4989299;28;20492;-75
2023/01/11 10:11:42;;;;;;;2.80;1.20;;;13.30;39.90;;;;;;4990442;28;20989;-75
2023/01/11 10:14:12;;;;;;;2.80;1.27;;;13.30;39.30;;;;;;4921714;29;21015;-75
2023/01/11 10:17:12;;;;;;;2.97;1.30;;;13.20;41.70;;;;;;4922107;29;20436;-75
2023/01/11 10:19:46;;;;;;;2.80;1.30;;;13.30;39.80;;;;;;4910471;29;20548;-75
2023/01/11 10:22:39;;;;;;;2.90;1.40;;;13.60;39.90;;;;;;4904675;29;20874;-75
2023/01/11 10:25:17;;;;;;;2.80;1.10;;;13.80;38.60;;;;;;4920117;29;20436;-74
2023/01/11 10:27:59;;;;;;;2.80;1.10;;;13.60;39.00;;;;;;4923380;29;20953;-74
2023/01/11 10:31:00;;;;;;;2.90;1.23;;;13.60;39.50;;;;;;4925065;29;20629;-74
2023/01/11 10:42:20;;;;;;;2.80;1.20;;;13.70;39.20;;;;;;4910260;29;21057;-75
2023/01/11 10:45:05;;;;;;;2.90;1.20;;;14.00;39.00;;;;;;4901514;29;20447;-75
2023/01/11 10:47:38;;;;;;;2.87;1.20;;;14.10;40.00;;;;;;4931013;29;20427;-75
2023/01/11 10:50:14;;;;;;;2.97;1.30;;;14.10;39.00;;;;;;4936809;28;20450;-75
2023/01/11 10:52:44;;;;;;;4.17;1.47;;;14.20;37.90;;;;;;4992130;28;20482;-75
2023/01/11 10:55:20;;;;;;;3.00;1.20;;;14.70;36.70;;;;;;4993870;28;20416;-75
2023/01/11 10:57:54;;;;;;;2.90;1.10;;;14.90;36.90;;;;;;4994290;28;20393;-76
2023/01/11 11:00:50;;;;;;;3.10;1.37;;;14.80;36.90;;;;;;4989551;28;20446;-74
2023/01/11 11:03:47;;;;;;;3.00;1.30;;;14.80;37.80;;;;;;4994052;28;20449;-75
2023/01/11 11:06:48;;;;;;;2.97;1.30;;;14.60;39.10;;;;;;5001563;28;20423;-75
2023/01/11 11:09:28;;;;;;;3.43;1.70;;;14.30;39.50;;;;;;4985741;28;20440;-75
2023/01/11 11:12:11;;;;;;;3.00;1.20;;;14.90;38.80;;;;;;4982255;28;20472;-74
2023/01/11 11:14:46;;;;;;;2.90;1.20;;;14.00;38.20;;;;;;5009374;28;20926;-75
2023/01/11 11:17:29;;;;;;;3.20;1.40;;;14.90;38.50;;;;;;4999159;28;20504;-75
2023/01/11 11:19:56;;;;;;;3.00;1.30;;;14.80;38.60;;;;;;4991152;28;20415;-75
2023/01/11 11:22:22;;;;;;;3.00;1.30;;;14.90;38.40;;;;;;4998186;28;20489;-76
2023/01/11 11:25:04;;;;;;;3.20;1.47;;;15.20;38.00;;;;;;4985801;28;20436;-75
2023/01/11 11:27:39;;;;;;;2.90;1.20;;;15.60;37.60;;;;;;4992697;28;20182;-76
2023/01/11 11:30:08;;;;;;;3.10;1.37;;;15.30;38.10;;;;;;4990901;28;20938;-74
2023/01/11 11:32:41;;;;;;;3.00;1.20;;;15.20;38.60;;;;;;4991502;28;20563;-74
2023/01/11 11:35:53;;;;;;;3.00;1.30;;;14.90;39.20;;;;;;4985129;28;20446;-73
2023/01/11 11:38:24;;;;;;;3.13;1.40;;;14.70;41.30;;;;;;5004356;28;21011;-76
2023/01/11 11:41:10;;;;;;;2.90;1.20;;;15.00;40.20;;;;;;5010184;28;20456;-74
2023/01/11 11:43:41;;;;;;;2.97;1.20;;;15.10;40.00;;;;;;4988343;28;20435;-74
2023/01/11 11:46:13;;;;;;;3.00;1.30;;;15.30;38.40;;;;;;4989073;28;20433;-74
2023/01/11 11:48:40;;;;;;;2.93;1.20;;;15.10;40.00;;;;;;4987269;28;20497;-73
2023/01/11 11:51:13;;;;;;;3.10;1.37;;;15.00;42.00;;;;;;4999595;28;20467;-73
2023/01/11 11:53:53;;;;;;;2.90;1.10;;;13.90;43.40;;;;;;4985357;28;20935;-73
2023/01/11 11:56:30;;;;;;;2.97;1.20;;;14.30;43.00;;;;;;4998704;28;20460;-73
2023/01/11 11:58:57;;;;;;;2.80;1.10;;;14.60;41.90;;;;;;4994337;28;20531;-78
2023/01/11 12:01:35;;;;;;;2.90;1.17;;;15.00;40.80;;;;;;4988359;28;20512;-72
2023/01/11 12:04:10;;;;;;;3.10;1.30;;;14.90;40.70;;;;;;4985708;28;20432;-71
2023/01/11 12:06:35;;;;;;;2.93;1.20;;;14.80;42.20;;;;;;4992843;28;20417;-76
2023/01/11 12:09:08;;;;;;;2.90;1.13;;;14.60;41.50;;;;;;4983848;28;20432;-71
2023/01/11 12:11:37;;;;;;;3.00;1.20;;;14.30;42.90;;;;;;4992440;28;20297;-76
2023/01/11 12:14:09;;;;;;;2.90;1.20;;;13.80;45.50;;;;;;4992696;28;20443;-71
2023/01/11 12:16:38;;;;;;;3.00;1.20;;;13.90;45.50;;;;;;4992586;28;20523;-72
2023/01/11 12:19:25;;;;;;;2.90;1.20;;;14.00;45.60;;;;;;4991394;28;20448;-74
2023/01/11 12:21:50;;;;;;;2.97;1.27;;;14.40;43.40;;;;;;4984070;28;20475;-74
2023/01/11 12:24:21;;;;;;;2.97;1.20;;;14.40;43.70;;;;;;4988903;28;20447;-75
2023/01/11 12:26:47;;;;;;;3.00;1.20;;;14.20;44.20;;;;;;4990864;28;20191;-70
2023/01/11 12:29:22;;;;;;;3.10;1.40;;;14.30;43.50;;;;;;4997198;28;20781;-70
2023/01/11 12:32:15;;;;;;;2.97;1.20;;;14.20;44.00;;;;;;4984855;28;20204;-73
2023/01/11 12:35:05;;;;;;;2.93;1.23;;;14.50;43.20;;;;;;4997985;28;20929;-72
2023/01/11 12:38:05;;;;;;;3.00;1.30;;;14.90;41.70;;;;;;5005399;28;20436;-75
2023/01/11 12:41:00;;;;;;;2.90;1.17;;;14.50;42.00;;;;;;4979113;28;20437;-70
2023/01/11 12:44:03;;;;;;;3.00;1.23;;;14.70;42.80;;;;;;4977209;28;20481;-70
2023/01/11 12:47:03;;;;;;;2.80;1.10;;;14.30;43.50;;;;;;4989571;28;20508;-74
2023/01/11 12:49:40;;;;;;;3.00;1.20;;;14.60;42.60;;;;;;4977964;28;20457;-70
2023/01/11 12:52:43;;;;;;;3.00;1.23;;;14.40;42.90;;;;;;4982300;28;20511;-70
2023/01/11 12:55:36;;;;;;;2.90;1.20;;;13.90;43.60;;;;;;4981162;28;20488;-75
2023/01/11 12:58:13;;;;;;;2.97;1.20;;;13.60;45.90;;;;;;4976963;28;20555;-70
2023/01/11 13:01:06;;;;;;;2.93;1.20;;;14.10;45.10;;;;;;4981899;28;20879;-73
2023/01/11 13:03:43;;;;;;;2.97;1.20;;;14.20;44.10;;;;;;4968103;28;20629;-70
2023/01/11 13:06:13;;;;;;;3.00;1.27;;;13.20;49.20;;;;;;4981902;28;20487;-71
2023/01/11 13:08:56;;;;;;;3.00;1.20;;;13.20;50.00;;;;;;4972687;28;20442;-70
2023/01/11 13:11:34;;;;;;;3.47;1.50;;;13.10;51.50;;;;;;4974332;28;20466;-74
2023/01/11 13:14:38;;;;;;;3.00;1.20;;;13.10;52.30;;;;;;4979065;28;20520;-77
2023/01/11 13:17:09;;;;;;;3.00;1.20;;;12.60;54.80;;;;;;4992892;28;20444;-70
2023/01/11 13:19:56;;;;;;;4.13;2.20;;;12.50;54.50;;;;;;5008315;28;20413;-70
2023/01/11 13:22:29;;;;;;;2.90;1.20;;;12.60;57.50;;;;;;4998549;28;20480;-70
2023/01/11 13:24:57;;;;;;;3.00;1.20;;;12.80;53.60;;;;;;4994163;28;20462;-77
2023/01/11 13:27:24;;;;;;;2.90;1.20;;;12.70;54.00;;;;;;4992328;28;20524;-71
2023/01/11 13:29:55;;;;;;;2.90;1.20;;;12.40;56.20;;;;;;4993759;28;20417;-70
2023/01/11 13:32:23;;;;;;;2.80;1.10;;;13.10;57.50;;;;;;5006874;28;20448;-73
2023/01/11 13:34:58;;;;;;;3.10;1.50;;;12.70;55.80;;;;;;4992383;28;20448;-70
2023/01/11 13:37:36;;;;;;;2.80;1.20;;;13.10;55.00;;;;;;5007699;28;20427;-70
2023/01/11 13:40:23;;;;;;;2.90;1.30;;;13.10;53.40;;;;;;4991053;28;20409;-70
2023/01/11 13:43:14;;;;;;;2.93;1.30;;;12.90;53.40;;;;;;4990740;28;20930;-78
2023/01/11 13:45:53;;;;;;;2.80;1.10;;;13.20;53.60;;;;;;4996690;28;20934;-70